FRS119N LOLH-LOWW
Flight info
| Callsign | FRS119N |
|---|---|
| Flight time | N/A |
| Altitude | 9000 |
| Route | DCT |
| Aircraft | C172/L-SFG/C |
Departure
| Time | N/A |
|---|---|
| Airport | Hofkirchen Airfield (LOLH) |
Arrival
| Time | 2026-05-05 19:45 |
|---|---|
| Airport | Vienna International Airport (LOWW) |
| Time | Latitude | Longitude | Altitude | Speed | Heading |
|---|---|---|---|---|---|
| 2026-05-05 19:01 | 48.15215 | 15.10131 | 2777 ft | 124 kts | 76° |
| 2026-05-05 19:01 | 48.15463 | 15.11342 | 2842 ft | 118 kts | 76° |
| 2026-05-05 19:01 | 48.15662 | 15.12535 | 2887 ft | 113 kts | 88° |
| 2026-05-05 19:01 | 48.15796 | 15.13699 | 2919 ft | 116 kts | 83° |
| 2026-05-05 19:02 | 48.16024 | 15.14870 | 2916 ft | 119 kts | 78° |
| 2026-05-05 19:02 | 48.16310 | 15.16059 | 2896 ft | 121 kts | 76° |
| 2026-05-05 19:02 | 48.16610 | 15.17233 | 2878 ft | 122 kts | 74° |
| 2026-05-05 19:02 | 48.16916 | 15.18431 | 2864 ft | 125 kts | 72° |
| 2026-05-05 19:03 | 48.17232 | 15.19654 | 2852 ft | 126 kts | 74° |
| 2026-05-05 19:03 | 48.17545 | 15.20791 | 2963 ft | 118 kts | 74° |
| 2026-05-05 19:03 | 48.17864 | 15.21972 | 2963 ft | 120 kts | 71° |
| 2026-05-05 19:03 | 48.18187 | 15.23106 | 3044 ft | 118 kts | 71° |
| 2026-05-05 19:04 | 48.18515 | 15.24241 | 3027 ft | 120 kts | 73° |
| 2026-05-05 19:04 | 48.18852 | 15.25417 | 3012 ft | 122 kts | 71° |
| 2026-05-05 19:04 | 48.19199 | 15.26573 | 3066 ft | 120 kts | 66° |
| 2026-05-05 19:04 | 48.19610 | 15.27729 | 3001 ft | 128 kts | 65° |
| 2026-05-05 19:05 | 48.20047 | 15.28895 | 2959 ft | 128 kts | 63° |
| 2026-05-05 19:05 | 48.20528 | 15.30005 | 2986 ft | 124 kts | 58° |
| 2026-05-05 19:05 | 48.21026 | 15.31053 | 2978 ft | 125 kts | 56° |
| 2026-05-05 19:05 | 48.21526 | 15.32088 | 2967 ft | 124 kts | 57° |
| 2026-05-05 19:06 | 48.22051 | 15.33155 | 2932 ft | 128 kts | 54° |
| 2026-05-05 19:06 | 48.22595 | 15.34205 | 2861 ft | 128 kts | 56° |
| 2026-05-05 19:06 | 48.23068 | 15.35296 | 2846 ft | 123 kts | 68° |
| 2026-05-05 19:06 | 48.23373 | 15.36496 | 2862 ft | 122 kts | 76° |
| 2026-05-05 19:07 | 48.23590 | 15.37707 | 2920 ft | 120 kts | 83° |
| 2026-05-05 19:07 | 48.23702 | 15.38944 | 2901 ft | 120 kts | 92° |
| 2026-05-05 19:07 | 48.23707 | 15.40191 | 2913 ft | 118 kts | 98° |
| 2026-05-05 19:07 | 48.23653 | 15.41419 | 2924 ft | 118 kts | 100° |
| 2026-05-05 19:08 | 48.23572 | 15.42643 | 2951 ft | 119 kts | 101° |
| 2026-05-05 19:08 | 48.23478 | 15.43880 | 2947 ft | 119 kts | 103° |
| 2026-05-05 19:08 | 48.23460 | 15.45146 | 2898 ft | 123 kts | 95° |
| 2026-05-05 19:08 | 48.23479 | 15.46438 | 2883 ft | 121 kts | 91° |
| 2026-05-05 19:09 | 48.23568 | 15.47689 | 2907 ft | 121 kts | 90° |
| 2026-05-05 19:09 | 48.23627 | 15.48984 | 2850 ft | 125 kts | 90° |
| 2026-05-05 19:09 | 48.23721 | 15.50271 | 2688 ft | 128 kts | 87° |
| 2026-05-05 19:09 | 48.23863 | 15.51545 | 2548 ft | 122 kts | 82° |
| 2026-05-05 19:10 | 48.24064 | 15.52742 | 2536 ft | 117 kts | 77° |
| 2026-05-05 19:10 | 48.24321 | 15.53885 | 2519 ft | 116 kts | 72° |
| 2026-05-05 19:10 | 48.24627 | 15.55005 | 2448 ft | 116 kts | 71° |
| 2026-05-05 19:10 | 48.24939 | 15.56106 | 2409 ft | 113 kts | 74° |
| 2026-05-05 19:11 | 48.25133 | 15.57201 | 2407 ft | 108 kts | 83° |
| 2026-05-05 19:11 | 48.25270 | 15.58315 | 2422 ft | 107 kts | 83° |
| 2026-05-05 19:11 | 48.25416 | 15.59392 | 2418 ft | 106 kts | 81° |
| 2026-05-05 19:11 | 48.25539 | 15.60528 | 2354 ft | 111 kts | 91° |
| 2026-05-05 19:12 | 48.25589 | 15.61686 | 2311 ft | 111 kts | 90° |
| 2026-05-05 19:12 | 48.25663 | 15.62854 | 2227 ft | 114 kts | 89° |
| 2026-05-05 19:12 | 48.25710 | 15.63992 | 2224 ft | 108 kts | 96° |
| 2026-05-05 19:12 | 48.25700 | 15.65131 | 2160 ft | 110 kts | 96° |
| 2026-05-05 19:13 | 48.25658 | 15.66279 | 2126 ft | 111 kts | 99° |
| 2026-05-05 19:13 | 48.25598 | 15.67426 | 2079 ft | 112 kts | 99° |
| 2026-05-05 19:13 | 48.25534 | 15.68560 | 2089 ft | 106 kts | 101° |
| 2026-05-05 19:13 | 48.25453 | 15.69629 | 2122 ft | 104 kts | 102° |
| 2026-05-05 19:14 | 48.25385 | 15.70710 | 2176 ft | 103 kts | 101° |
| 2026-05-05 19:14 | 48.25337 | 15.71790 | 2213 ft | 105 kts | 98° |
| 2026-05-05 19:14 | 48.25296 | 15.72906 | 2221 ft | 105 kts | 99° |
| 2026-05-05 19:14 | 48.25279 | 15.74026 | 2218 ft | 110 kts | 96° |
| 2026-05-05 19:15 | 48.25319 | 15.75161 | 2251 ft | 109 kts | 91° |
| 2026-05-05 19:15 | 48.25404 | 15.76307 | 2251 ft | 112 kts | 88° |
| 2026-05-05 19:15 | 48.25516 | 15.77484 | 2258 ft | 114 kts | 87° |
| 2026-05-05 19:15 | 48.25619 | 15.78641 | 2246 ft | 113 kts | 86° |
| 2026-05-05 19:16 | 48.25771 | 15.79812 | 2252 ft | 113 kts | 85° |
| 2026-05-05 19:16 | 48.25896 | 15.80968 | 2284 ft | 113 kts | 85° |
| 2026-05-05 19:16 | 48.26025 | 15.82150 | 2258 ft | 116 kts | 86° |
| 2026-05-05 19:16 | 48.26132 | 15.83335 | 2258 ft | 117 kts | 86° |
| 2026-05-05 19:17 | 48.26267 | 15.84542 | 2252 ft | 117 kts | 85° |
| 2026-05-05 19:17 | 48.26383 | 15.85761 | 2203 ft | 118 kts | 91° |
| 2026-05-05 19:17 | 48.26424 | 15.86979 | 2189 ft | 115 kts | 93° |
| 2026-05-05 19:17 | 48.26452 | 15.88144 | 2230 ft | 109 kts | 93° |
| 2026-05-05 19:18 | 48.26485 | 15.89286 | 2215 ft | 110 kts | 92° |
| 2026-05-05 19:18 | 48.26527 | 15.90459 | 2146 ft | 115 kts | 92° |
| 2026-05-05 19:18 | 48.26569 | 15.91630 | 2161 ft | 110 kts | 92° |
| 2026-05-05 19:18 | 48.26602 | 15.92775 | 2202 ft | 108 kts | 94° |
| 2026-05-05 19:19 | 48.26614 | 15.93898 | 2293 ft | 107 kts | 94° |
| 2026-05-05 19:19 | 48.26647 | 15.95044 | 2275 ft | 112 kts | 95° |
| 2026-05-05 19:19 | 48.26636 | 15.96241 | 2215 ft | 115 kts | 99° |
| 2026-05-05 19:19 | 48.26580 | 15.97412 | 2279 ft | 109 kts | 98° |
| 2026-05-05 19:20 | 48.26637 | 15.98554 | 2291 ft | 112 kts | 82° |
| 2026-05-05 19:20 | 48.26848 | 15.99709 | 2237 ft | 117 kts | 74° |
| 2026-05-05 19:20 | 48.27181 | 16.00826 | 2173 ft | 118 kts | 67° |
| 2026-05-05 19:20 | 48.27548 | 16.01894 | 2226 ft | 112 kts | 66° |
| 2026-05-05 19:21 | 48.27937 | 16.02933 | 2204 ft | 113 kts | 62° |
| 2026-05-05 19:21 | 48.28377 | 16.03922 | 2088 ft | 113 kts | 56° |
| 2026-05-05 19:21 | 48.28871 | 16.04848 | 1997 ft | 117 kts | 52° |
| 2026-05-05 19:21 | 48.29412 | 16.05763 | 1954 ft | 117 kts | 50° |
| 2026-05-05 19:22 | 48.29981 | 16.06612 | 1964 ft | 115 kts | 46° |
| 2026-05-05 19:22 | 48.30581 | 16.07426 | 1895 ft | 119 kts | 43° |
| 2026-05-05 19:22 | 48.31225 | 16.08216 | 1773 ft | 125 kts | 49° |
| 2026-05-05 19:22 | 48.31898 | 16.09022 | 1723 ft | 123 kts | 48° |
| 2026-05-05 19:23 | 48.32567 | 16.09819 | 1666 ft | 125 kts | 45° |
| 2026-05-05 19:23 | 48.33262 | 16.10580 | 1643 ft | 124 kts | 43° |
| 2026-05-05 19:23 | 48.33984 | 16.11295 | 1634 ft | 124 kts | 41° |
| 2026-05-05 19:23 | 48.34676 | 16.12021 | 1625 ft | 124 kts | 47° |
| 2026-05-05 19:24 | 48.35311 | 16.12901 | 1613 ft | 124 kts | 56° |
| 2026-05-05 19:24 | 48.35906 | 16.13852 | 1548 ft | 126 kts | 57° |
| 2026-05-05 19:24 | 48.36468 | 16.14831 | 1545 ft | 122 kts | 65° |
| 2026-05-05 19:24 | 48.36803 | 16.15887 | 1663 ft | 104 kts | 85° |
| 2026-05-05 19:25 | 48.36996 | 16.16956 | 1638 ft | 108 kts | 91° |
| 2026-05-05 19:25 | 48.37015 | 16.18042 | 1675 ft | 101 kts | 105° |
| 2026-05-05 19:25 | 48.36998 | 16.19145 | 1568 ft | 112 kts | 103° |
| 2026-05-05 19:25 | 48.36958 | 16.20285 | 1620 ft | 108 kts | 102° |
| 2026-05-05 19:26 | 48.36950 | 16.21423 | 1562 ft | 113 kts | 104° |
| 2026-05-05 19:26 | 48.36880 | 16.22604 | 1506 ft | 110 kts | 104° |
| 2026-05-05 19:26 | 48.36872 | 16.23680 | 1587 ft | 99 kts | 103° |
| 2026-05-05 19:26 | 48.36801 | 16.24722 | 1486 ft | 103 kts | 108° |
| 2026-05-05 19:27 | 48.36652 | 16.25710 | 1480 ft | 93 kts | 124° |
| 2026-05-05 19:27 | 48.36380 | 16.26559 | 1444 ft | 93 kts | 124° |
| 2026-05-05 19:27 | 48.36120 | 16.27440 | 1432 ft | 93 kts | 116° |
| 2026-05-05 19:27 | 48.35922 | 16.28353 | 1444 ft | 95 kts | 117° |
| 2026-05-05 19:28 | 48.35667 | 16.29312 | 1451 ft | 98 kts | 122° |
| 2026-05-05 19:28 | 48.35394 | 16.30243 | 1525 ft | 97 kts | 126° |
| 2026-05-05 19:28 | 48.35095 | 16.31140 | 1560 ft | 96 kts | 132° |
| 2026-05-05 19:28 | 48.34696 | 16.31910 | 1586 ft | 92 kts | 144° |
| 2026-05-05 19:29 | 48.34223 | 16.32537 | 1623 ft | 90 kts | 148° |
| 2026-05-05 19:29 | 48.33725 | 16.33145 | 1600 ft | 93 kts | 150° |
| 2026-05-05 19:29 | 48.33201 | 16.33699 | 1557 ft | 92 kts | 153° |
| 2026-05-05 19:29 | 48.32652 | 16.34143 | 1534 ft | 89 kts | 159° |
| 2026-05-05 19:30 | 48.32109 | 16.34533 | 1485 ft | 86 kts | 158° |
| 2026-05-05 19:30 | 48.31546 | 16.34920 | 1429 ft | 89 kts | 159° |
| 2026-05-05 19:30 | 48.30982 | 16.35282 | 1436 ft | 86 kts | 160° |
| 2026-05-05 19:30 | 48.30429 | 16.35662 | 1417 ft | 88 kts | 158° |
| 2026-05-05 19:31 | 48.29869 | 16.36054 | 1380 ft | 90 kts | 158° |
| 2026-05-05 19:31 | 48.29325 | 16.36495 | 1394 ft | 85 kts | 152° |
| 2026-05-05 19:31 | 48.28810 | 16.36963 | 1343 ft | 88 kts | 158° |
| 2026-05-05 19:31 | 48.28213 | 16.37287 | 1321 ft | 94 kts | 163° |
| 2026-05-05 19:32 | 48.27597 | 16.37626 | 1388 ft | 92 kts | 160° |
| 2026-05-05 19:32 | 48.27001 | 16.38008 | 1411 ft | 95 kts | 160° |
| 2026-05-05 19:32 | 48.26390 | 16.38388 | 1413 ft | 95 kts | 162° |
| 2026-05-05 19:32 | 48.25765 | 16.38719 | 1402 ft | 96 kts | 163° |
| 2026-05-05 19:33 | 48.25142 | 16.39020 | 1421 ft | 93 kts | 163° |
| 2026-05-05 19:33 | 48.24511 | 16.39316 | 1347 ft | 96 kts | 161° |
| 2026-05-05 19:33 | 48.23880 | 16.39669 | 1328 ft | 95 kts | 160° |
| 2026-05-05 19:33 | 48.23257 | 16.39803 | 1403 ft | 88 kts | 182° |
| 2026-05-05 19:34 | 48.22739 | 16.39376 | 1489 ft | 89 kts | 233° |
| 2026-05-05 19:34 | 48.22796 | 16.38385 | 1528 ft | 106 kts | 296° |
| 2026-05-05 19:34 | 48.23434 | 16.37811 | 1590 ft | 115 kts | 350° |
| 2026-05-05 19:35 | 48.24594 | 16.39023 | 1639 ft | 93 kts | 98° |
| 2026-05-05 19:35 | 48.24400 | 16.39842 | 1697 ft | 81 kts | 147° |
| 2026-05-05 19:35 | 48.23858 | 16.40205 | 1556 ft | 92 kts | 171° |
| 2026-05-05 19:35 | 48.23232 | 16.40345 | 1493 ft | 90 kts | 168° |
| 2026-05-05 19:36 | 48.22647 | 16.40690 | 1438 ft | 90 kts | 151° |
| 2026-05-05 19:36 | 48.22161 | 16.41279 | 1410 ft | 90 kts | 146° |
| 2026-05-05 19:36 | 48.21688 | 16.41865 | 1402 ft | 88 kts | 146° |
| 2026-05-05 19:36 | 48.21226 | 16.42446 | 1392 ft | 88 kts | 141° |
| 2026-05-05 19:37 | 48.20944 | 16.42895 | 1405 ft | 86 kts | 139° |
| 2026-05-05 19:37 | 48.20566 | 16.43587 | 1387 ft | 86 kts | 132° |
| 2026-05-05 19:37 | 48.20230 | 16.44348 | 1347 ft | 89 kts | 128° |
| 2026-05-05 19:37 | 48.19913 | 16.45126 | 1429 ft | 83 kts | 124° |
| 2026-05-05 19:38 | 48.19661 | 16.45921 | 1414 ft | 86 kts | 126° |
| 2026-05-05 19:38 | 48.19458 | 16.46755 | 1528 ft | 86 kts | 122° |
| 2026-05-05 19:38 | 48.19207 | 16.47553 | 1517 ft | 84 kts | 144° |
| 2026-05-05 19:38 | 48.18926 | 16.48334 | 1558 ft | 93 kts | 122° |
| 2026-05-05 19:39 | 48.18891 | 16.49370 | 1480 ft | 102 kts | 100° |
| 2026-05-05 19:39 | 48.18983 | 16.50397 | 1376 ft | 100 kts | 98° |
| 2026-05-05 19:39 | 48.19041 | 16.51423 | 1298 ft | 96 kts | 105° |
| 2026-05-05 19:39 | 48.18982 | 16.52392 | 1181 ft | 89 kts | 109° |
| 2026-05-05 19:40 | 48.18964 | 16.53315 | 1161 ft | 80 kts | 107° |
| 2026-05-05 19:40 | 48.18850 | 16.54116 | 1123 ft | 76 kts | 123° |
| 2026-05-05 19:40 | 48.18535 | 16.54694 | 1077 ft | 68 kts | 150° |
| 2026-05-05 19:40 | 48.18132 | 16.54987 | 1103 ft | 64 kts | 155° |
| 2026-05-05 19:41 | 48.17734 | 16.55342 | 1056 ft | 67 kts | 154° |
| 2026-05-05 19:41 | 48.17304 | 16.55599 | 1051 ft | 67 kts | 164° |
| 2026-05-05 19:41 | 48.16842 | 16.55736 | 1024 ft | 67 kts | 163° |
| 2026-05-05 19:41 | 48.16383 | 16.55960 | 1007 ft | 71 kts | 162° |
| 2026-05-05 19:42 | 48.15955 | 16.56138 | 988 ft | 62 kts | 168° |
| 2026-05-05 19:42 | 48.15533 | 16.56315 | 878 ft | 65 kts | 156° |
| 2026-05-05 19:42 | 48.15389 | 16.56909 | 716 ft | 75 kts | 103° |
| 2026-05-05 19:42 | 48.15239 | 16.57508 | 752 ft | 52 kts | 154° |
| 2026-05-05 19:43 | 48.14895 | 16.57864 | 769 ft | 63 kts | 149° |
| 2026-05-05 19:43 | 48.14447 | 16.58035 | 737 ft | 72 kts | 181° |
| 2026-05-05 19:43 | 48.13988 | 16.57779 | 807 ft | 75 kts | 194° |
| 2026-05-05 19:43 | 48.13531 | 16.57494 | 931 ft | 74 kts | 193° |
| 2026-05-05 19:44 | 48.13005 | 16.57389 | 850 ft | 76 kts | 167° |
| 2026-05-05 19:44 | 48.12522 | 16.57593 | 726 ft | 65 kts | 165° |
| 2026-05-05 19:44 | 48.12160 | 16.57739 | 650 ft | 52 kts | 163° |
| 2026-05-05 19:44 | 48.11806 | 16.57891 | 619 ft | 51 kts | 163° |
| 2026-05-05 19:45 | 48.11514 | 16.58022 | 611 ft | 35 kts | 163° |
| 2026-05-05 19:45 | 48.11321 | 16.58099 | 605 ft | 24 kts | 167° |
| 2026-05-05 19:45 | 48.11171 | 16.58146 | 608 ft | 22 kts | 172° |
| 2026-05-05 19:45 | 48.11066 | 16.58064 | 605 ft | 18 kts | 249° |
| 2026-05-05 19:46 | 48.11122 | 16.57910 | 605 ft | 18 kts | 326° |
| 2026-05-05 19:46 | 48.11235 | 16.57852 | 605 ft | 17 kts | 342° |
| 2026-05-05 19:46 | 48.11342 | 16.57808 | 607 ft | 15 kts | 346° |
| 2026-05-05 19:46 | 48.11426 | 16.57770 | 611 ft | 7 kts | 341° |
| 2026-05-05 19:47 | 48.11453 | 16.57754 | 605 ft | 6 kts | 328° |
| 2026-05-05 19:47 | 48.11488 | 16.57668 | 605 ft | 13 kts | 281° |
| 2026-05-05 19:47 | 48.11478 | 16.57631 | 605 ft | 0 kts | 241° |
| 2026-05-05 19:48 | 48.11483 | 16.57596 | 605 ft | 8 kts | 340° |
| 2026-05-05 19:48 | 48.11538 | 16.57534 | 605 ft | 12 kts | 263° |
| 2026-05-05 19:48 | 48.11474 | 16.57452 | 608 ft | 11 kts | 215° |
| 2026-05-05 19:49 | 48.11436 | 16.57368 | 608 ft | 11 kts | 267° |
| 2026-05-05 19:49 | 48.11466 | 16.57265 | 607 ft | 9 kts | 294° |
| 2026-05-05 19:49 | 48.11487 | 16.57201 | 605 ft | 5 kts | 297° |
| 2026-05-05 19:49 | 48.11492 | 16.57181 | 611 ft | 0 kts | 291° |
| 2026-05-05 19:50 | 48.11514 | 16.57117 | 605 ft | 17 kts | 295° |
| 2026-05-05 19:50 | 48.11585 | 16.56895 | 610 ft | 28 kts | 296° |
| 2026-05-05 19:50 | 48.11669 | 16.56634 | 609 ft | 22 kts | 296° |
| 2026-05-05 19:50 | 48.11727 | 16.56461 | 609 ft | 19 kts | 295° |
| 2026-05-05 19:51 | 48.11743 | 16.56311 | 611 ft | 15 kts | 221° |
| 2026-05-05 19:51 | 48.11663 | 16.56240 | 608 ft | 12 kts | 227° |
| 2026-05-05 19:51 | 48.11672 | 16.56123 | 605 ft | 11 kts | 297° |
| 2026-05-05 19:51 | 48.11699 | 16.56042 | 605 ft | 7 kts | 295° |
| 2026-05-05 19:52 | 48.11716 | 16.55991 | 606 ft | 5 kts | 297° |
| 2026-05-05 19:52 | 48.11735 | 16.55934 | 605 ft | 7 kts | 295° |
| 2026-05-05 19:52 | 48.11762 | 16.55852 | 614 ft | 11 kts | 297° |
| 2026-05-05 19:52 | 48.11798 | 16.55742 | 608 ft | 13 kts | 287° |
| 2026-05-05 19:53 | 48.11834 | 16.55606 | 611 ft | 15 kts | 285° |
| 2026-05-05 19:53 | 48.11879 | 16.55468 | 610 ft | 15 kts | 287° |
| 2026-05-05 19:53 | 48.11926 | 16.55316 | 611 ft | 17 kts | 294° |
| 2026-05-05 19:53 | 48.11975 | 16.55162 | 605 ft | 15 kts | 296° |
| 2026-05-05 19:54 | 48.12016 | 16.55040 | 608 ft | 11 kts | 295° |
| 2026-05-05 19:54 | 48.12042 | 16.54961 | 613 ft | 7 kts | 295° |
| 2026-05-05 19:54 | 48.12070 | 16.54873 | 611 ft | 12 kts | 299° |
| 2026-05-05 19:54 | 48.12114 | 16.54739 | 607 ft | 18 kts | 294° |
| 2026-05-05 19:55 | 48.12178 | 16.54540 | 613 ft | 21 kts | 295° |
| 2026-05-05 19:55 | 48.12211 | 16.54417 | 605 ft | 10 kts | 258° |
| 2026-05-05 19:55 | 48.12174 | 16.54326 | 613 ft | 11 kts | 272° |
| 2026-05-05 19:55 | 48.12199 | 16.54234 | 609 ft | 9 kts | 294° |
| 2026-05-05 19:56 | 48.12237 | 16.54118 | 605 ft | 17 kts | 294° |
| 2026-05-05 19:56 | 48.12301 | 16.53920 | 608 ft | 23 kts | 295° |
| 2026-05-05 19:56 | 48.12370 | 16.53707 | 609 ft | 23 kts | 298° |
| 2026-05-05 19:56 | 48.12431 | 16.53526 | 605 ft | 11 kts | 302° |
| 2026-05-05 19:57 | 48.12492 | 16.53504 | 605 ft | 9 kts | 0° |
| 2026-05-05 19:57 | 48.12552 | 16.53504 | 605 ft | 9 kts | 23° |
| 2026-05-05 19:57 | 48.12604 | 16.53541 | 611 ft | 9 kts | 27° |
| 2026-05-05 19:57 | 48.12674 | 16.53550 | 609 ft | 13 kts | 330° |
| 2026-05-05 19:58 | 48.12764 | 16.53598 | 609 ft | 15 kts | 31° |
| 2026-05-05 19:58 | 48.12808 | 16.53604 | 618 ft | 4 kts | 295° |
| 2026-05-05 19:58 | 48.12815 | 16.53586 | 605 ft | 0 kts | 295° |
| 2026-05-05 19:58 | 48.12820 | 16.53571 | 605 ft | 0 kts | 294° |
| 2026-05-05 19:59 | 48.12821 | 16.53568 | 605 ft | 0 kts | 295° |